Time;durP1;ratioP1;P1;durP2;ratioP2;P2;SDS_P1;SDS_P2;PMS_P1;PMS_P2;Temp;Humidity;BMP_temperature;BMP_pressure;BME280_temperature;BME280_humidity;BME280_pressure;Samples;Min_cycle;Max_cycle;Signal;HPM_P1;HPM_P2
2023/12/03 00:01:57;;;;;;;45.20;26.93;;;;;;;-1.14;100.00;101688.75;5053924;28;20453;-64
2023/12/03 00:04:22;;;;;;;40.50;25.27;;;;;;;-1.14;100.00;101680.22;5044764;28;20029;-62
2023/12/03 00:06:47;;;;;;;45.03;26.63;;;;;;;-1.09;100.00;101690.06;5052301;28;20020;-64
2023/12/03 00:09:13;;;;;;;50.67;27.93;;;;;;;-1.10;100.00;101689.94;5045575;28;20029;-64
2023/12/03 00:11:38;;;;;;;41.90;25.23;;;;;;;-1.07;100.00;101686.78;5048347;28;20389;-65
2023/12/03 00:14:03;;;;;;;42.77;25.63;;;;;;;-1.07;100.00;101687.66;5045110;28;20117;-63
2023/12/03 00:16:28;;;;;;;42.63;26.30;;;;;;;-1.04;100.00;101690.50;5051954;28;20029;-63
2023/12/03 00:18:54;;;;;;;41.73;26.07;;;;;;;-1.02;100.00;101689.00;5056260;28;20028;-62
2023/12/03 00:21:19;;;;;;;43.90;27.77;;;;;;;-1.01;100.00;101693.31;5054462;28;20021;-64
2023/12/03 00:23:44;;;;;;;40.57;23.73;;;;;;;-1.00;100.00;101684.94;5035327;28;20058;-60
2023/12/03 00:26:10;;;;;;;41.90;24.47;;;;;;;-0.98;100.00;101685.09;5047828;28;20480;-64
2023/12/03 00:28:35;;;;;;;39.27;24.47;;;;;;;-0.96;100.00;101691.22;5048293;28;20036;-62
2023/12/03 00:31:00;;;;;;;38.50;24.90;;;;;;;-0.95;100.00;101692.13;5041774;28;20030;-64
2023/12/03 00:33:26;;;;;;;43.13;23.57;;;;;;;-0.92;100.00;101692.41;5042176;28;20063;-64
2023/12/03 00:35:51;;;;;;;38.00;23.83;;;;;;;-0.88;100.00;101697.91;5053282;28;20472;-64
2023/12/03 00:38:16;;;;;;;41.30;25.03;;;;;;;-0.87;100.00;101701.34;5041763;28;20415;-63
2023/12/03 00:40:41;;;;;;;38.20;23.57;;;;;;;-0.84;100.00;101691.44;5052856;28;20020;-64
2023/12/03 00:43:07;;;;;;;39.47;24.43;;;;;;;-0.79;100.00;101700.41;5042912;28;20238;-63
2023/12/03 00:45:32;;;;;;;37.60;23.07;;;;;;;-0.78;100.00;101686.94;5041653;28;20152;-64
2023/12/03 00:47:58;;;;;;;35.07;23.53;;;;;;;-0.76;100.00;101687.97;5053490;28;20025;-65
2023/12/03 00:50:23;;;;;;;37.33;22.60;;;;;;;-0.69;100.00;101685.97;5065090;28;20422;-64
2023/12/03 00:52:48;;;;;;;34.77;21.63;;;;;;;-0.70;100.00;101689.28;5054936;28;20025;-64
2023/12/03 00:55:14;;;;;;;38.77;23.70;;;;;;;-0.67;100.00;101687.00;5048217;28;20033;-63
2023/12/03 00:57:39;;;;;;;33.47;22.67;;;;;;;-0.66;100.00;101691.34;5060183;28;20380;-64
2023/12/03 01:00:06;;;;;;;34.97;21.47;;;;;;;-0.65;100.00;101696.56;5034383;28;20032;-64
2023/12/03 01:02:32;;;;;;;35.50;22.63;;;;;;;-0.62;100.00;101695.97;5035405;28;20484;-64
2023/12/03 01:04:58;;;;;;;35.37;23.80;;;;;;;-0.62;100.00;101699.41;5040737;28;20029;-64
2023/12/03 01:07:23;;;;;;;36.93;24.23;;;;;;;-0.60;100.00;101702.09;5042006;28;20024;-64
2023/12/03 01:09:48;;;;;;;41.77;25.40;;;;;;;-0.58;100.00;101698.03;5051850;28;20061;-62
2023/12/03 01:12:13;;;;;;;35.73;25.60;;;;;;;-0.58;100.00;101704.78;5040885;28;20029;-63
2023/12/03 01:14:39;;;;;;;35.40;24.77;;;;;;;-0.58;100.00;101700.59;5044072;28;20038;-63
2023/12/03 01:17:04;;;;;;;39.47;24.40;;;;;;;-0.57;100.00;101707.47;5046006;28;20492;-64
2023/12/03 01:19:29;;;;;;;38.07;26.10;;;;;;;-0.57;100.00;101707.47;5053645;28;20031;-64
2023/12/03 01:21:55;;;;;;;36.77;25.27;;;;;;;-0.53;100.00;101719.72;5045199;28;20032;-64
2023/12/03 01:24:20;;;;;;;39.07;25.37;;;;;;;-0.55;100.00;101713.59;5044376;28;20032;-64
2023/12/03 01:26:45;;;;;;;38.90;26.03;;;;;;;-0.52;100.00;101711.31;5042428;28;20025;-64
2023/12/03 01:29:12;;;;;;;37.00;25.53;;;;;;;-0.51;100.00;101715.69;5045919;28;20044;-63
2023/12/03 01:31:37;;;;;;;37.53;25.67;;;;;;;-0.53;100.00;101719.72;5047500;28;20204;-61
2023/12/03 01:34:02;;;;;;;36.60;24.43;;;;;;;-0.53;100.00;101719.72;5046745;28;20108;-64
2023/12/03 01:36:27;;;;;;;36.03;23.60;;;;;;;-0.56;100.00;101714.38;5052120;28;20117;-62
2023/12/03 01:38:53;;;;;;;34.87;24.43;;;;;;;-0.57;100.00;101715.09;5050473;28;20033;-64
2023/12/03 01:41:18;;;;;;;35.07;24.73;;;;;;;-0.58;100.00;101710.78;5047408;28;20447;-63
2023/12/03 01:43:50;;;;;;;36.07;25.20;;;;;;;-0.56;100.00;101713.47;5033567;28;20052;-64
2023/12/03 01:46:16;;;;;;;33.60;23.70;;;;;;;-0.59;100.00;101719.16;5037850;28;20048;-64
2023/12/03 01:48:44;;;;;;;36.53;23.93;;;;;;;-0.62;100.00;101713.78;5056401;28;20017;-65
2023/12/03 01:51:10;;;;;;;36.63;22.77;;;;;;;-0.64;100.00;101717.84;5046793;28;20043;-62
2023/12/03 01:53:38;;;;;;;36.00;23.90;;;;;;;-0.69;100.00;101717.44;5046740;28;20035;-64
2023/12/03 01:56:05;;;;;;;35.00;23.83;;;;;;;-0.71;100.00;101705.28;5047661;28;20041;-64
2023/12/03 01:58:30;;;;;;;33.70;22.47;;;;;;;-0.69;100.00;101717.44;5059076;28;20514;-64
2023/12/03 02:00:56;;;;;;;37.90;23.93;;;;;;;-0.69;100.00;101717.44;5033305;28;20056;-64
2023/12/03 02:03:21;;;;;;;36.50;22.90;;;;;;;-0.67;100.00;101715.03;5047438;28;20021;-64
2023/12/03 02:06:02;;;;;;;35.40;23.40;;;;;;;-0.71;100.00;101720.56;5046687;28;20211;-64
2023/12/03 02:08:27;;;;;;;37.60;24.30;;;;;;;-0.74;100.00;101724.63;5047403;28;20029;-64
2023/12/03 02:10:52;;;;;;;34.83;23.73;;;;;;;-0.72;100.00;101714.63;5046490;28;20409;-65
2023/12/03 02:13:18;;;;;;;40.40;26.07;;;;;;;-0.73;100.00;101726.44;5046149;28;20024;-64
2023/12/03 02:15:43;;;;;;;37.27;24.43;;;;;;;-0.71;100.00;101730.75;5044348;28;20071;-64
2023/12/03 02:18:08;;;;;;;38.60;26.10;;;;;;;-0.69;100.00;101729.25;5046423;28;20223;-63
2023/12/03 02:20:33;;;;;;;41.57;26.77;;;;;;;-0.70;100.00;101732.56;5049216;28;20025;-64
2023/12/03 02:23:00;;;;;;;40.83;27.70;;;;;;;-0.69;100.00;101741.97;5046804;28;20029;-63
2023/12/03 02:25:25;;;;;;;38.57;27.33;;;;;;;-0.68;100.00;101743.75;5045957;28;20028;-64
2023/12/03 02:27:50;;;;;;;40.97;26.40;;;;;;;-0.66;100.00;101738.06;5058648;28;20522;-64
2023/12/03 02:30:16;;;;;;;39.53;25.80;;;;;;;-0.62;100.00;101740.16;5047921;28;20021;-65
2023/12/03 02:32:41;;;;;;;39.30;26.30;;;;;;;-0.62;100.00;101744.34;5060760;28;20145;-64
2023/12/03 02:35:07;;;;;;;37.27;24.37;;;;;;;-0.60;100.00;101742.84;5057457;28;20032;-64
2023/12/03 02:37:32;;;;;;;36.27;23.87;;;;;;;-0.61;100.00;101735.94;5053646;28;20499;-62
2023/12/03 02:39:57;;;;;;;32.63;23.00;;;;;;;-0.63;100.00;101740.03;5046319;28;20052;-64
2023/12/03 02:42:23;;;;;;;36.03;22.83;;;;;;;-0.63;100.00;101735.81;5046170;28;20039;-65
2023/12/03 02:44:48;;;;;;;34.40;22.80;;;;;;;-0.59;100.00;101742.06;5046062;28;20126;-64
2023/12/03 02:47:13;;;;;;;34.00;23.53;;;;;;;-0.59;100.00;101738.66;5047665;28;20028;-64
2023/12/03 02:49:38;;;;;;;37.13;24.40;;;;;;;-0.61;100.00;101731.75;5045897;28;20052;-64
2023/12/03 02:52:04;;;;;;;33.83;21.90;;;;;;;-0.61;100.00;101736.84;5042467;28;20115;-64
2023/12/03 02:54:29;;;;;;;34.93;21.20;;;;;;;-0.59;100.00;101739.53;5048170;28;20029;-64
2023/12/03 02:56:54;;;;;;;39.00;22.53;;;;;;;-0.57;100.00;101743.13;5049991;28;20071;-63
2023/12/03 02:59:20;;;;;;;34.30;22.47;;;;;;;-0.57;100.00;101745.66;5048990;28;20550;-64
2023/12/03 03:01:45;;;;;;;34.70;23.23;;;;;;;-0.55;100.00;101743.25;5037929;28;20028;-64
2023/12/03 03:04:10;;;;;;;33.80;21.40;;;;;;;-0.55;100.00;101741.59;5063070;28;20032;-64
2023/12/03 03:06:36;;;;;;;37.87;23.87;;;;;;;-0.53;100.00;101740.09;5055033;28;20389;-64
2023/12/03 03:09:01;;;;;;;32.23;21.60;;;;;;;-0.48;100.00;101737.97;5055863;28;20028;-64
2023/12/03 03:11:26;;;;;;;34.13;22.43;;;;;;;-0.50;100.00;101735.28;5043142;28;20048;-63
2023/12/03 03:13:51;;;;;;;35.27;22.77;;;;;;;-0.51;100.00;101740.25;5043824;28;20053;-64
2023/12/03 03:16:17;;;;;;;36.13;24.00;;;;;;;-0.52;100.00;101739.34;5032010;28;20469;-64
2023/12/03 03:18:42;;;;;;;37.30;22.93;;;;;;;-0.55;100.00;101744.16;5031559;28;20058;-65
2023/12/03 03:21:08;;;;;;;34.23;22.37;;;;;;;-0.53;100.00;101751.94;5036431;28;20024;-64
2023/12/03 03:23:35;;;;;;;33.40;22.60;;;;;;;-0.50;100.00;101735.28;5049549;28;20082;-62
2023/12/03 03:26:01;;;;;;;35.37;22.47;;;;;;;-0.52;100.00;101741.00;5038047;28;20048;-63
2023/12/03 03:28:26;;;;;;;33.03;23.30;;;;;;;-0.58;100.00;101736.25;5042345;28;20021;-63
2023/12/03 03:30:52;;;;;;;35.73;23.30;;;;;;;-0.58;100.00;101740.44;5038155;28;20039;-64
2023/12/03 03:33:17;;;;;;;33.00;22.87;;;;;;;-0.59;100.00;101738.66;5049822;28;20021;-64
2023/12/03 03:35:43;;;;;;;34.83;23.23;;;;;;;-0.60;100.00;101742.84;5060204;28;20035;-65
2023/12/03 03:38:08;;;;;;;33.80;22.97;;;;;;;-0.61;100.00;101743.56;5059301;28;20033;-63
2023/12/03 03:40:33;;;;;;;34.37;22.07;;;;;;;-0.69;100.00;101747.06;5042514;28;20108;-64
2023/12/03 03:42:58;;;;;;;34.83;23.20;;;;;;;-0.70;100.00;101741.06;5034443;28;20045;-64
2023/12/03 03:45:24;;;;;;;34.40;21.83;;;;;;;-0.75;100.00;101743.22;5051206;28;20223;-63
2023/12/03 03:47:50;;;;;;;34.47;21.83;;;;;;;-0.77;100.00;101738.72;5057545;28;20029;-63
2023/12/03 03:50:15;;;;;;;34.50;22.50;;;;;;;-0.78;100.00;101748.03;5048848;28;20025;-63
2023/12/03 03:52:40;;;;;;;32.77;22.27;;;;;;;-0.85;100.00;101745.66;5040743;28;20040;-64
2023/12/03 03:55:06;;;;;;;36.17;22.00;;;;;;;-0.86;100.00;101744.75;5048365;28;20025;-64
2023/12/03 03:57:31;;;;;;;32.70;22.33;;;;;;;-0.87;100.00;101748.06;5049246;28;20082;-64
2023/12/03 03:59:56;;;;;;;34.13;21.83;;;;;;;-0.89;100.00;101749.56;5048426;28;20036;-64
2023/12/03 04:02:22;;;;;;;30.93;21.37;;;;;;;-0.94;100.00;101753.34;5048543;28;20163;-63
2023/12/03 04:04:47;;;;;;;36.33;23.00;;;;;;;-0.97;100.00;101759.03;5048661;28;20025;-64
2023/12/03 04:07:12;;;;;;;33.30;22.13;;;;;;;-1.01;100.00;101758.59;5048855;28;20025;-63
2023/12/03 04:09:38;;;;;;;36.40;22.63;;;;;;;-1.00;100.00;101755.28;5042439;28;20032;-64
2023/12/03 04:12:03;;;;;;;34.40;22.00;;;;;;;-1.01;100.00;101759.47;5041921;28;20099;-62
2023/12/03 04:14:28;;;;;;;40.67;22.47;;;;;;;-1.07;100.00;101753.84;5029457;28;20607;-63
2023/12/03 04:16:57;;;;;;;34.50;22.40;;;;;;;-1.11;100.00;101752.66;5041357;28;20399;-64
2023/12/03 04:19:22;;;;;;;38.93;22.83;;;;;;;-1.08;100.00;101757.16;5041847;28;20490;-63
2023/12/03 04:21:47;;;;;;;34.87;22.40;;;;;;;-1.13;100.00;101754.16;5042888;28;20059;-64
2023/12/03 04:24:13;;;;;;;38.47;22.53;;;;;;;-1.11;100.00;101761.91;5047918;28;20028;-64
2023/12/03 04:26:42;;;;;;;33.80;21.00;;;;;;;-1.12;100.00;101770.31;5037724;28;20057;-64
2023/12/03 04:29:07;;;;;;;33.97;20.70;;;;;;;-1.13;100.00;101763.41;5036428;28;20024;-63
2023/12/03 04:31:33;;;;;;;35.53;21.03;;;;;;;-1.13;100.00;101769.41;5047777;28;20040;-62
2023/12/03 04:33:58;;;;;;;34.37;21.73;;;;;;;-1.17;100.00;101761.34;5048280;28;20009;-62
2023/12/03 04:36:24;;;;;;;37.23;22.40;;;;;;;-1.21;100.00;101757.63;5047891;28;20412;-63
2023/12/03 04:38:53;;;;;;;39.70;22.83;;;;;;;-1.27;100.00;101765.56;5047792;28;20059;-61
2023/12/03 04:41:19;;;;;;;32.10;21.20;;;;;;;-1.30;100.00;101760.19;5046284;28;20032;-64
2023/12/03 04:43:44;;;;;;;34.30;21.37;;;;;;;-1.37;100.00;101770.53;5046708;28;20429;-63
2023/12/03 04:46:09;;;;;;;34.33;22.07;;;;;;;-1.31;100.00;101768.56;5037054;28;20033;-63
2023/12/03 04:48:36;;;;;;;30.77;20.90;;;;;;;-1.28;100.00;101768.88;5051203;28;20025;-64
2023/12/03 04:51:02;;;;;;;32.57;21.60;;;;;;;-1.31;100.00;101767.69;5028446;28;20060;-63
2023/12/03 04:53:27;;;;;;;37.10;22.13;;;;;;;-1.30;100.00;101772.91;5037257;28;20074;-64
2023/12/03 04:55:53;;;;;;;34.87;20.50;;;;;;;-1.33;100.00;101775.13;5046285;28;20040;-64
2023/12/03 04:58:18;;;;;;;35.77;22.80;;;;;;;-1.46;100.00;101778.19;5049526;28;20052;-63
2023/12/03 05:00:44;;;;;;;38.27;21.67;;;;;;;-1.40;100.00;101776.22;5047481;28;20029;-63
2023/12/03 05:03:09;;;;;;;33.60;21.50;;;;;;;-1.38;100.00;101776.34;5046568;28;20029;-63
2023/12/03 05:05:34;;;;;;;37.83;22.60;;;;;;;-1.42;100.00;101775.16;5046923;28;20024;-63
2023/12/03 05:08:00;;;;;;;35.77;22.67;;;;;;;-1.48;100.00;101780.59;5047130;28;20624;-64
2023/12/03 05:10:25;;;;;;;37.37;22.87;;;;;;;-1.46;100.00;101773.97;5046304;28;20128;-64
2023/12/03 05:12:51;;;;;;;34.10;21.63;;;;;;;-1.47;100.00;101777.28;5043931;28;20029;-63
2023/12/03 05:15:16;;;;;;;41.53;24.80;;;;;;;-1.46;100.00;101783.28;5046972;28;20020;-63
2023/12/03 05:17:41;;;;;;;37.57;22.63;;;;;;;-1.53;100.00;101785.97;5044493;28;20029;-63
2023/12/03 05:20:07;;;;;;;33.80;22.67;;;;;;;-1.53;100.00;101791.06;5051271;28;20381;-64
2023/12/03 05:22:33;;;;;;;41.63;25.43;;;;;;;-1.59;100.00;101791.34;5049697;28;20473;-64
2023/12/03 05:24:58;;;;;;;44.50;25.70;;;;;;;-1.55;100.00;101793.44;5047685;28;20393;-64
2023/12/03 05:27:23;;;;;;;43.70;26.53;;;;;;;-1.65;100.00;101795.81;5030309;28;20382;-64
2023/12/03 05:29:49;;;;;;;42.87;25.00;;;;;;;-1.72;100.00;101785.09;5040466;28;20580;-63
2023/12/03 05:32:14;;;;;;;41.40;24.27;;;;;;;-1.73;100.00;101783.31;5047458;28;20052;-64
2023/12/03 05:34:43;;;;;;;42.03;24.53;;;;;;;-1.72;100.00;101787.63;5059920;28;20032;-63
2023/12/03 05:37:09;;;;;;;41.10;23.40;;;;;;;-1.76;100.00;101793.16;5034493;28;20461;-63
2023/12/03 05:39:35;;;;;;;39.83;23.37;;;;;;;-1.77;100.00;101786.28;5046278;28;20056;-64
2023/12/03 05:42:01;;;;;;;38.10;23.43;;;;;;;-1.79;100.00;101792.84;5049872;28;20025;-64
2023/12/03 05:44:26;;;;;;;46.23;24.77;;;;;;;-1.85;100.00;101792.25;5043741;28;20536;-64
2023/12/03 05:46:52;;;;;;;38.87;23.37;;;;;;;-1.89;100.00;101790.16;5043807;28;20058;-64
2023/12/03 05:49:17;;;;;;;39.83;22.37;;;;;;;-1.83;100.00;101798.38;5042736;28;20059;-63
2023/12/03 05:51:45;;;;;;;40.37;21.67;;;;;;;-1.82;100.00;101795.97;5048013;28;20033;-64
2023/12/03 05:54:10;;;;;;;41.00;23.53;;;;;;;-1.87;100.00;101794.63;5047696;28;20634;-64
2023/12/03 05:56:36;;;;;;;36.43;20.00;;;;;;;-1.86;100.00;101795.53;5042392;28;20053;-63
2023/12/03 05:59:01;;;;;;;36.70;22.00;;;;;;;-1.94;100.00;101800.78;5028155;28;20026;-64
2023/12/03 06:01:26;;;;;;;39.40;21.87;;;;;;;-1.96;100.00;101794.63;5050446;28;20453;-64
2023/12/03 06:03:52;;;;;;;37.90;21.23;;;;;;;-1.99;100.00;101795.97;5047711;28;20040;-64
2023/12/03 06:06:17;;;;;;;39.47;22.27;;;;;;;-2.03;100.00;101799.84;5043196;28;20104;-64
2023/12/03 06:08:43;;;;;;;34.43;22.33;;;;;;;-2.05;100.00;101801.34;5048926;28;20433;-64
2023/12/03 06:11:08;;;;;;;37.87;20.90;;;;;;;-2.07;100.00;101801.19;5044380;28;20032;-64
2023/12/03 06:13:34;;;;;;;37.03;22.23;;;;;;;-2.08;100.00;101807.03;5040169;28;20068;-64
2023/12/03 06:15:59;;;;;;;39.27;22.70;;;;;;;-2.04;100.00;101800.63;5041918;28;20144;-64
2023/12/03 06:18:24;;;;;;;43.17;22.63;;;;;;;-2.12;100.00;101810.00;5048190;28;20147;-63
2023/12/03 06:20:50;;;;;;;39.70;23.27;;;;;;;-2.17;100.00;101807.03;5048921;28;20025;-61
2023/12/03 06:23:15;;;;;;;42.73;22.80;;;;;;;-2.17;100.00;101813.75;5056266;28;20245;-64
2023/12/03 06:25:40;;;;;;;41.10;23.20;;;;;;;-2.14;100.00;101823.31;5042606;28;20029;-62
2023/12/03 06:28:06;;;;;;;43.37;23.63;;;;;;;-2.18;100.00;101822.13;5043424;28;20430;-63
2023/12/03 06:30:31;;;;;;;41.10;22.70;;;;;;;-2.20;100.00;101824.50;5031389;28;20156;-64
2023/12/03 06:32:56;;;;;;;35.50;20.03;;;;;;;-2.16;100.00;101833.34;5029412;28;20029;-63
2023/12/03 06:35:21;;;;;;;36.13;20.70;;;;;;;-2.13;100.00;101825.09;5048737;28;20033;-64
2023/12/03 06:37:47;;;;;;;38.73;22.73;;;;;;;-2.11;100.00;101828.69;5050505;28;20031;-63
2023/12/03 06:40:14;;;;;;;34.37;20.83;;;;;;;-2.15;100.00;101821.50;5048319;28;20079;-64
2023/12/03 06:42:39;;;;;;;34.13;21.20;;;;;;;-2.18;100.00;101810.28;5049938;28;20049;-64
2023/12/03 06:45:05;;;;;;;37.13;21.00;;;;;;;-2.20;100.00;101811.81;5044887;28;20398;-63
2023/12/03 06:47:30;;;;;;;39.93;21.90;;;;;;;-2.23;100.00;101808.94;5031213;28;20040;-63
2023/12/03 06:49:55;;;;;;;39.73;22.50;;;;;;;-2.24;100.00;101807.16;5036531;28;20109;-63
2023/12/03 06:52:21;;;;;;;39.77;22.27;;;;;;;-2.23;100.00;101803.84;5062888;28;20389;-63
2023/12/03 06:54:46;;;;;;;34.30;20.40;;;;;;;-2.26;100.00;101807.72;5049229;28;20071;-63
2023/12/03 06:57:11;;;;;;;40.53;22.17;;;;;;;-2.25;100.00;101802.84;5040263;28;20031;-63
2023/12/03 06:59:37;;;;;;;40.30;22.17;;;;;;;-2.23;100.00;101803.84;5037317;28;20646;-64
2023/12/03 07:02:02;;;;;;;40.03;21.37;;;;;;;-2.24;100.00;101806.25;5042567;28;20111;-63
2023/12/03 07:04:27;;;;;;;37.23;21.07;;;;;;;-2.27;100.00;101806.88;5047104;28;20927;-63
2023/12/03 07:06:53;;;;;;;35.80;21.67;;;;;;;-2.28;100.00;101806.72;5039092;28;20051;-64
2023/12/03 07:09:19;;;;;;;39.47;22.13;;;;;;;-2.28;100.00;101809.25;5052686;28;20079;-64
2023/12/03 07:11:44;;;;;;;37.53;22.00;;;;;;;-2.32;100.00;101808.06;5053091;28;20013;-63
2023/12/03 07:14:09;;;;;;;36.87;21.63;;;;;;;-2.34;100.00;101802.78;5048636;28;20307;-61
2023/12/03 07:16:35;;;;;;;37.70;21.57;;;;;;;-2.31;100.00;101809.84;5035064;28;20420;-64
2023/12/03 07:19:00;;;;;;;35.57;20.93;;;;;;;-2.31;100.00;101814.91;5040648;28;20074;-61
2023/12/03 07:21:25;;;;;;;38.17;21.33;;;;;;;-2.33;100.00;101814.75;5041938;28;20029;-62
2023/12/03 07:23:50;;;;;;;37.60;22.57;;;;;;;-2.32;100.00;101819.09;5046422;28;20359;-62
2023/12/03 07:26:16;;;;;;;36.37;20.97;;;;;;;-2.32;100.00;101818.22;5050066;28;20263;-62
2023/12/03 07:28:41;;;;;;;38.70;21.43;;;;;;;-2.35;100.00;101822.94;5045206;28;20025;-64
2023/12/03 07:31:07;;;;;;;37.60;21.83;;;;;;;-2.35;100.00;101825.50;5048959;28;20407;-62
2023/12/03 07:33:32;;;;;;;37.97;21.73;;;;;;;-2.35;100.00;101823.84;5052251;28;20032;-63
2023/12/03 07:35:58;;;;;;;34.97;18.90;;;;;;;-2.32;100.00;101821.63;5058138;28;20072;-64
2023/12/03 07:38:23;;;;;;;34.50;20.00;;;;;;;-2.26;100.00;101828.97;5049284;28;20040;-63
2023/12/03 07:40:48;;;;;;;35.47;19.70;;;;;;;-2.24;100.00;101827.47;5035876;28;20120;-62
2023/12/03 07:43:14;;;;;;;37.83;21.83;;;;;;;-2.27;100.00;101824.63;5034997;28;20085;-62
2023/12/03 07:45:39;;;;;;;38.13;20.73;;;;;;;-2.28;100.00;101825.38;5040939;28;20049;-64
2023/12/03 07:48:04;;;;;;;35.27;20.00;;;;;;;-2.28;100.00;101830.44;5048010;28;20040;-63
2023/12/03 07:50:30;;;;;;;35.90;20.93;;;;;;;-2.23;100.00;101828.38;5039877;28;20445;-63
2023/12/03 07:52:55;;;;;;;33.30;19.37;;;;;;;-2.23;100.00;101829.25;5041040;28;20029;-64
2023/12/03 07:55:20;;;;;;;37.20;21.00;;;;;;;-2.18;100.00;101823.00;5055955;28;20126;-63
2023/12/03 07:57:45;;;;;;;32.53;18.73;;;;;;;-2.13;100.00;101830.19;5040854;28;20034;-63
2023/12/03 08:00:11;;;;;;;31.67;19.30;;;;;;;-2.12;100.00;101832.88;5038662;28;20044;-64
2023/12/03 08:02:37;;;;;;;33.23;20.47;;;;;;;-2.13;100.00;101826.00;5042868;28;20036;-64
2023/12/03 08:05:04;;;;;;;36.77;20.37;;;;;;;-2.12;100.00;101827.78;5046778;28;20746;-63
2023/12/03 08:07:29;;;;;;;31.67;19.83;;;;;;;-2.09;100.00;101827.22;5041535;28;20025;-63
2023/12/03 08:09:54;;;;;;;34.37;20.60;;;;;;;-2.07;100.00;101841.84;5050203;28;20090;-63
2023/12/03 08:12:20;;;;;;;31.77;18.77;;;;;;;-2.05;100.00;101834.38;5050376;28;20024;-63
2023/12/03 08:14:45;;;;;;;31.87;19.73;;;;;;;-2.07;100.00;101840.97;5052290;28;20016;-63
2023/12/03 08:17:12;;;;;;;34.37;19.50;;;;;;;-2.07;100.00;101846.06;5049475;28;20035;-63
2023/12/03 08:19:39;;;;;;;34.40;20.90;;;;;;;-2.09;100.00;101840.81;5038630;28;20078;-62
2023/12/03 08:22:05;;;;;;;33.67;20.80;;;;;;;-2.05;100.00;101844.53;5045620;28;20036;-63
2023/12/03 08:24:31;;;;;;;32.80;19.57;;;;;;;-2.05;100.00;101844.53;5044669;28;20040;-63
2023/12/03 08:26:56;;;;;;;32.17;18.10;;;;;;;-2.04;100.00;101851.44;5048003;28;20036;-61
2023/12/03 08:29:22;;;;;;;29.97;18.43;;;;;;;-2.03;100.00;101853.22;5050755;28;20063;-63
2023/12/03 08:31:49;;;;;;;33.93;18.53;;;;;;;-2.01;100.00;101859.34;5041206;28;20028;-63
2023/12/03 08:34:15;;;;;;;35.17;19.37;;;;;;;-1.94;100.00;101849.06;5043357;28;20389;-64
2023/12/03 08:36:40;;;;;;;30.30;19.60;;;;;;;-1.80;100.00;101852.06;5045609;28;20044;-62
2023/12/03 08:39:07;;;;;;;33.47;19.53;;;;;;;-1.77;100.00;101852.38;5046250;28;20029;-63
2023/12/03 08:41:34;;;;;;;35.93;18.47;;;;;;;-1.74;100.00;101857.75;5041334;28;20021;-64
2023/12/03 08:43:59;;;;;;;32.60;18.97;;;;;;;-1.69;100.00;101861.63;5058002;28;20040;-64
2023/12/03 08:46:25;;;;;;;30.33;19.40;;;;;;;-1.61;100.00;101861.50;5044075;28;20438;-63
2023/12/03 08:48:50;;;;;;;30.80;18.93;;;;;;;-1.63;100.00;101861.34;5047144;28;20021;-60
2023/12/03 08:51:15;;;;;;;29.00;17.13;;;;;;;-1.50;100.00;101866.00;5045872;28;20021;-63
2023/12/03 08:53:41;;;;;;;29.80;19.03;;;;;;;-1.48;100.00;101877.22;5043700;28;20508;-63
2023/12/03 08:56:12;;;;;;;26.97;17.77;;;;;;;-1.51;100.00;101870.94;5045260;28;20028;-64
2023/12/03 08:58:38;;;;;;;28.97;18.57;;;;;;;-1.53;100.00;101872.44;5050405;28;20096;-61
2023/12/03 09:01:03;;;;;;;31.67;18.07;;;;;;;-1.51;100.00;101876.00;5049174;28;20086;-62
2023/12/03 09:03:29;;;;;;;28.73;17.83;;;;;;;-1.56;100.00;101867.91;5056735;28;20029;-62
2023/12/03 09:05:54;;;;;;;29.07;17.87;;;;;;;-1.40;100.00;101871.97;5032598;28;20517;-64
2023/12/03 09:08:19;;;;;;;26.70;16.60;;;;;;;-1.46;100.00;101869.72;5064606;28;20040;-62
2023/12/03 09:10:45;;;;;;;26.50;17.03;;;;;;;-1.42;100.00;101876.88;5061382;28;20032;-63
2023/12/03 09:13:10;;;;;;;27.30;16.67;;;;;;;-1.42;100.00;101876.88;5035744;28;20028;-64
2023/12/03 09:15:36;;;;;;;29.20;16.93;;;;;;;-1.48;100.00;101876.31;5044908;28;20024;-64
2023/12/03 09:18:01;;;;;;;28.03;16.00;;;;;;;-1.46;100.00;101880.78;5056216;28;20029;-63
2023/12/03 09:20:26;;;;;;;26.03;16.37;;;;;;;-1.42;100.00;101886.19;5051363;28;20622;-64
2023/12/03 09:22:51;;;;;;;29.03;16.30;;;;;;;-1.46;100.00;101890.94;5048957;28;20063;-63
2023/12/03 09:25:17;;;;;;;27.30;16.50;;;;;;;-1.43;100.00;101884.38;5054861;28;20506;-64
2023/12/03 09:27:42;;;;;;;27.33;15.77;;;;;;;-1.35;100.00;101886.91;5049764;28;20032;-61
2023/12/03 09:30:08;;;;;;;27.77;16.93;;;;;;;-1.31;100.00;101885.56;5050210;28;20136;-63
2023/12/03 09:32:33;;;;;;;26.80;17.43;;;;;;;-1.36;100.00;101884.22;5055914;28;20028;-63
2023/12/03 09:34:59;;;;;;;24.10;14.77;;;;;;;-1.34;100.00;101885.28;5052502;28;20032;-63
2023/12/03 09:37:24;;;;;;;25.53;16.17;;;;;;;-1.38;100.00;101878.09;5053242;28;20037;-63
2023/12/03 09:39:50;;;;;;;28.43;15.60;;;;;;;-1.38;100.00;101883.16;5052796;28;20554;-62
2023/12/03 09:42:22;;;;;;;25.63;16.40;;;;;;;-1.36;100.00;101880.03;5053699;28;20060;-64
2023/12/03 09:45:09;;;;;;;27.07;16.70;;;;;;;-1.31;100.00;101877.94;5052018;28;20123;-62
2023/12/03 09:47:37;;;;;;;28.00;16.30;;;;;;;-1.24;100.00;101877.78;5048218;28;20043;-64
2023/12/03 09:50:04;;;;;;;25.37;15.23;;;;;;;-1.19;100.00;101880.78;5054225;28;20091;-62
2023/12/03 09:52:35;;;;;;;24.33;15.23;;;;;;;-1.16;100.00;101875.09;5057848;28;20502;-64
2023/12/03 09:55:01;;;;;;;26.08;15.85;;;;;;;-1.05;100.00;101883.75;5046076;28;20028;-64
2023/12/03 09:57:29;;;;;;;23.90;14.50;;;;;;;-1.04;100.00;101876.25;5043424;28;20047;-64
2023/12/03 10:00:00;;;;;;;23.63;14.20;;;;;;;-1.07;100.00;101881.06;5044073;28;20112;-63
2023/12/03 10:02:28;;;;;;;21.67;14.23;;;;;;;-1.03;100.00;101877.16;5052483;28;20039;-62
2023/12/03 10:04:54;;;;;;;25.27;15.03;;;;;;;-1.01;100.00;101876.53;5053681;28;20361;-62
2023/12/03 10:07:22;;;;;;;24.93;14.50;;;;;;;-0.92;100.00;101880.75;5052694;28;20204;-64
2023/12/03 10:09:49;;;;;;;24.70;15.67;;;;;;;-0.94;100.00;101867.88;5057428;28;20028;-64
2023/12/03 10:12:19;;;;;;;21.63;15.67;;;;;;;-0.88;100.00;101867.56;5048637;28;20079;-63
2023/12/03 10:14:45;;;;;;;22.47;14.63;;;;;;;-0.89;100.00;101861.56;5049107;28;20033;-63
2023/12/03 10:17:19;;;;;;;25.97;14.73;;;;;;;-0.85;100.00;101867.84;5045942;28;21243;-63
2023/12/03 10:19:44;;;;;;;23.50;15.13;;;;;;;-0.82;100.00;101860.50;5053504;28;20856;-63
2023/12/03 10:22:10;;;;;;;24.17;15.03;;;;;;;-0.79;100.00;101855.69;5061900;28;20025;-64
2023/12/03 10:24:55;;;;;;;24.80;15.83;;;;;;;-0.75;100.00;101857.78;5050684;28;20103;-64
2023/12/03 10:27:28;;;;;;;24.47;14.70;;;;;;;-0.74;100.00;101854.47;5043922;28;20032;-64
2023/12/03 10:29:53;;;;;;;25.90;15.20;;;;;;;-0.70;100.00;101858.19;5056419;28;20663;-64
2023/12/03 10:32:20;;;;;;;22.67;13.10;;;;;;;-0.68;100.00;101855.78;5051283;28;20056;-64
2023/12/03 10:34:49;;;;;;;21.30;13.60;;;;;;;-0.71;100.00;101847.88;5048006;28;20087;-63
2023/12/03 10:37:15;;;;;;;24.87;13.77;;;;;;;-0.65;100.00;101844.25;5055785;28;20062;-64
2023/12/03 10:39:40;;;;;;;20.63;13.30;;;;;;;-0.57;100.00;101849.16;5054758;28;20017;-64
2023/12/03 10:42:08;;;;;;;20.60;13.27;;;;;;;-0.45;100.00;101844.34;5057580;28;20028;-63
2023/12/03 10:44:33;;;;;;;22.43;14.13;;;;;;;-0.53;100.00;101835.97;5056118;28;20765;-64
2023/12/03 10:46:58;;;;;;;22.23;13.40;;;;;;;-0.55;100.00;101833.28;5055094;28;20041;-62
2023/12/03 10:49:25;;;;;;;19.83;12.80;;;;;;;-0.51;100.00;101830.28;5047087;28;20045;-64
2023/12/03 10:51:54;;;;;;;21.37;13.80;;;;;;;-0.45;100.00;101824.84;5052496;28;20831;-64
2023/12/03 10:54:19;;;;;;;22.27;12.87;;;;;;;-0.35;100.00;101823.16;5045633;28;20351;-64
2023/12/03 10:56:49;;;;;;;18.57;13.07;;;;;;;-0.29;100.00;101826.28;5043046;28;20043;-63